This is the latest recevied weather packets stored in our database for station/object KF4LQQ-13. If no packets are shown the sender has not sent any weather packets the latest 10 day(s).
| Time | Temp. | Humidity | Pressure | Rain* | Wind** | Luminosity | Snow |
|---|---|---|---|---|---|---|---|
| 1777935331 | 31.11° C | - | 1010.4 hPa | 0 mm | - | - | - |
| 1777934731 | 31.67° C | - | 1010.4 hPa | 0 mm | - | - | - |
| 1777934130 | 31.67° C | - | 1010.6 hPa | 0 mm | - | - | - |
| 1777933530 | 31.67° C | - | 1010.6 hPa | 0 mm | - | - | - |
| 1777932930 | 31.67° C | - | 1010.6 hPa | 0 mm | - | - | - |
| 1777932433 | 31.67° C | - | 1010.7 hPa | 0 mm | - | - | - |
| 1777932330 | 31.67° C | - | 1010.7 hPa | 0 mm | - | - | - |
| 1777931729 | 31.67° C | - | 1010.6 hPa | 0 mm | - | - | - |
| 1777931409 | 32.22° C | - | 1010.6 hPa | 0 mm | - | - | - |
| 1777931129 | 32.22° C | - | 1010.6 hPa | 0 mm | - | - | - |
| 1777930529 | 32.22° C | - | 1010.6 hPa | 0 mm | - | - | - |
| 1777929929 | 32.22° C | - | 1010.6 hPa | 0 mm | - | - | - |
| 1777929328 | 31.67° C | - | 1010.7 hPa | 0 mm | - | - | - |
| 1777928845 | 31.11° C | - | 1010.8 hPa | 0 mm | - | - | - |
| 1777928728 | 31.11° C | - | 1010.8 hPa | 0 mm | - | - | - |
| 1777928128 | 31.67° C | - | 1010.8 hPa | 0 mm | - | - | - |
| 1777927528 | 31.67° C | - | 1010.9 hPa | 0 mm | - | - | - |
| 1777926927 | 31.11° C | - | 1011.1 hPa | 0 mm | - | - | - |
| 1777926327 | 31.67° C | - | 1011 hPa | 0 mm | - | - | - |
| 1777925727 | 31.67° C | - | 1011.1 hPa | 0 mm | - | - | - |
| 1777925127 | 31.11° C | - | 1011.3 hPa | 0 mm | - | - | - |
| 1777924526 | 31.11° C | - | 1011.5 hPa | 0 mm | - | - | - |
| 1777923926 | 31.11° C | - | 1011.6 hPa | 0 mm | - | - | - |
| 1777923325 | 30.56° C | - | 1011.7 hPa | 0 mm | - | - | - |
| 1777922726 | 30.56° C | - | 1011.7 hPa | 0 mm | - | - | - |
* Rain since midnight (hover to see other rain measurements)
** Current wind speed in m/s (hover to see current wind gust speed)